sensor_id;sensor_type;location;lat;lon;timestamp;pressure;altitude;pressure_sealevel;temperature
73662;BMP280;61956;52.540;13.382;2023-03-31T00:01:02;96705.59;;;11.25
73662;BMP280;61956;52.540;13.382;2023-03-31T00:03:31;97021.66;;;11.26
73662;BMP280;61956;52.540;13.382;2023-03-31T00:06:04;96999.81;;;11.27
73662;BMP280;61956;52.540;13.382;2023-03-31T00:08:33;96361.84;;;11.24
73662;BMP280;61956;52.540;13.382;2023-03-31T00:11:06;96912.75;;;11.26
73662;BMP280;61956;52.540;13.382;2023-03-31T00:13:37;96787.16;;;11.27
73662;BMP280;61956;52.540;13.382;2023-03-31T00:16:09;95785.47;;;11.20
73662;BMP280;61956;52.540;13.382;2023-03-31T00:18:39;96009.16;;;11.20
73662;BMP280;61956;52.540;13.382;2023-03-31T00:21:14;96301.03;;;11.21
73662;BMP280;61956;52.540;13.382;2023-03-31T00:23:55;96095.44;;;11.21
73662;BMP280;61956;52.540;13.382;2023-03-31T00:26:26;96791.50;;;11.23
73662;BMP280;61956;52.540;13.382;2023-03-31T00:28:56;96956.06;;;11.26
73662;BMP280;61956;52.540;13.382;2023-03-31T00:31:28;97261.50;;;11.29
73662;BMP280;61956;52.540;13.382;2023-03-31T00:33:58;96960.16;;;11.27
73662;BMP280;61956;52.540;13.382;2023-03-31T00:36:27;97225.94;;;11.29
73662;BMP280;61956;52.540;13.382;2023-03-31T00:39:03;97810.19;;;11.35
73662;BMP280;61956;52.540;13.382;2023-03-31T00:41:35;96568.59;;;11.27
73662;BMP280;61956;52.540;13.382;2023-03-31T00:44:09;96676.75;;;11.26
73662;BMP280;61956;52.540;13.382;2023-03-31T00:46:51;96770.84;;;11.27
73662;BMP280;61956;52.540;13.382;2023-03-31T00:49:26;96476.31;;;11.26
73662;BMP280;61956;52.540;13.382;2023-03-31T00:52:01;95991.75;;;11.21
73662;BMP280;61956;52.540;13.382;2023-03-31T00:54:35;96323.28;;;11.22
73662;BMP280;61956;52.540;13.382;2023-03-31T00:57:07;96500.31;;;11.23
73662;BMP280;61956;52.540;13.382;2023-03-31T00:59:40;96782.63;;;11.24
73662;BMP280;61956;52.540;13.382;2023-03-31T01:02:17;97466.09;;;11.30
73662;BMP280;61956;52.540;13.382;2023-03-31T01:04:52;96627.78;;;11.25
73662;BMP280;61956;52.540;13.382;2023-03-31T01:07:31;96073.22;;;11.20
73662;BMP280;61956;52.540;13.382;2023-03-31T01:10:08;95624.00;;;11.16
73662;BMP280;61956;52.540;13.382;2023-03-31T01:12:41;95174.16;;;11.11
73662;BMP280;61956;52.540;13.382;2023-03-31T01:15:15;94296.69;;;11.01
73662;BMP280;61956;52.540;13.382;2023-03-31T01:17:47;94849.53;;;11.03
73662;BMP280;61956;52.540;13.382;2023-03-31T01:20:28;94123.97;;;10.98
73662;BMP280;61956;52.540;13.382;2023-03-31T01:23:35;92590.78;;;10.81
73662;BMP280;61956;52.540;13.382;2023-03-31T01:26:48;91742.00;;;10.70
73662;BMP280;61956;52.540;13.382;2023-03-31T01:29:48;93291.47;;;10.77
73662;BMP280;61956;52.540;13.382;2023-03-31T01:36:44;92934.56;;;10.70
73662;BMP280;61956;52.540;13.382;2023-03-31T01:40:05;91533.53;;;10.57
73662;BMP280;61956;52.540;13.382;2023-03-31T01:42:57;93836.59;;;10.71
73662;BMP280;61956;52.540;13.382;2023-03-31T01:45:45;92601.78;;;10.63
73662;BMP280;61956;52.540;13.382;2023-03-31T01:48:28;94476.72;;;10.75
73662;BMP280;61956;52.540;13.382;2023-03-31T01:51:08;94596.19;;;10.77
73662;BMP280;61956;52.540;13.382;2023-03-31T01:53:48;94487.09;;;10.75
73662;BMP280;61956;52.540;13.382;2023-03-31T01:56:30;93287.31;;;10.66
73662;BMP280;61956;52.540;13.382;2023-03-31T01:59:08;93066.75;;;10.62
73662;BMP280;61956;52.540;13.382;2023-03-31T02:01:42;94194.94;;;10.70
73662;BMP280;61956;52.540;13.382;2023-03-31T02:04:20;93323.63;;;10.63
73662;BMP280;61956;52.540;13.382;2023-03-31T02:06:55;92509.66;;;10.56
73662;BMP280;61956;52.540;13.382;2023-03-31T02:09:31;93406.50;;;10.59
73662;BMP280;61956;52.540;13.382;2023-03-31T02:12:09;93523.69;;;10.60
73662;BMP280;61956;52.540;13.382;2023-03-31T02:14:42;94239.00;;;10.66
73662;BMP280;61956;52.540;13.382;2023-03-31T02:17:17;94850.69;;;10.70
73662;BMP280;61956;52.540;13.382;2023-03-31T02:19:57;94869.19;;;10.72
73662;BMP280;61956;52.540;13.382;2023-03-31T02:22:34;94306.63;;;10.68
73662;BMP280;61956;52.540;13.382;2023-03-31T02:25:09;93996.81;;;10.65
73662;BMP280;61956;52.540;13.382;2023-03-31T02:27:47;94100.34;;;10.65
73662;BMP280;61956;52.540;13.382;2023-03-31T02:30:21;94752.28;;;10.70
73662;BMP280;61956;52.540;13.382;2023-03-31T02:32:53;94883.97;;;10.72
73662;BMP280;61956;52.540;13.382;2023-03-31T02:35:22;95252.06;;;10.74
73662;BMP280;61956;52.540;13.382;2023-03-31T02:37:56;94820.72;;;10.73
73662;BMP280;61956;52.540;13.382;2023-03-31T02:40:28;94809.63;;;10.72
73662;BMP280;61956;52.540;13.382;2023-03-31T02:43:00;94480.81;;;10.69
73662;BMP280;61956;52.540;13.382;2023-03-31T02:45:42;94876.94;;;10.72
73662;BMP280;61956;52.540;13.382;2023-03-31T02:48:17;94949.47;;;10.72
73662;BMP280;61956;52.540;13.382;2023-03-31T02:54:08;94697.91;;;10.70
73662;BMP280;61956;52.540;13.382;2023-03-31T02:57:09;95195.09;;;10.74
73662;BMP280;61956;52.540;13.382;2023-03-31T02:59:58;95608.75;;;10.77
73662;BMP280;61956;52.540;13.382;2023-03-31T03:02:49;95415.25;;;10.77
73662;BMP280;61956;52.540;13.382;2023-03-31T03:05:37;95884.13;;;10.81
73662;BMP280;61956;52.540;13.382;2023-03-31T03:09:10;95383.44;;;10.77
73662;BMP280;61956;52.540;13.382;2023-03-31T03:11:52;95245.41;;;10.76
73662;BMP280;61956;52.540;13.382;2023-03-31T03:14:37;95025.69;;;10.75
73662;BMP280;61956;52.540;13.382;2023-03-31T03:17:19;95269.84;;;10.75
73662;BMP280;61956;52.540;13.382;2023-03-31T03:19:53;95742.75;;;10.80
73662;BMP280;61956;52.540;13.382;2023-03-31T03:22:24;95501.47;;;10.78
73662;BMP280;61956;52.540;13.382;2023-03-31T03:24:53;95126.66;;;10.75
73662;BMP280;61956;52.540;13.382;2023-03-31T03:27:22;95062.28;;;10.73
73662;BMP280;61956;52.540;13.382;2023-03-31T03:29:52;95593.97;;;10.77
73662;BMP280;61956;52.540;13.382;2023-03-31T03:32:24;95907.81;;;10.79
73662;BMP280;61956;52.540;13.382;2023-03-31T03:34:53;96404.22;;;10.84
73662;BMP280;61956;52.540;13.382;2023-03-31T03:37:22;96861.19;;;10.88
73662;BMP280;61956;52.540;13.382;2023-03-31T03:39:51;96847.91;;;10.89
73662;BMP280;61956;52.540;13.382;2023-03-31T03:42:21;97243.53;;;10.94
73662;BMP280;61956;52.540;13.382;2023-03-31T03:44:50;97348.44;;;10.97
73662;BMP280;61956;52.540;13.382;2023-03-31T03:47:19;97246.56;;;10.96
73662;BMP280;61956;52.540;13.382;2023-03-31T03:49:51;97202.19;;;10.98
73662;BMP280;61956;52.540;13.382;2023-03-31T03:52:20;97233.00;;;10.99
73662;BMP280;61956;52.540;13.382;2023-03-31T03:54:49;96882.13;;;10.95
73662;BMP280;61956;52.540;13.382;2023-03-31T03:57:18;96493.66;;;10.94
73662;BMP280;61956;52.540;13.382;2023-03-31T03:59:48;96362.63;;;10.93
73662;BMP280;61956;52.540;13.382;2023-03-31T04:02:17;96582.56;;;10.94
73662;BMP280;61956;52.540;13.382;2023-03-31T04:04:46;96911.41;;;10.96
73662;BMP280;61956;52.540;13.382;2023-03-31T04:07:18;96639.56;;;10.94
73662;BMP280;61956;52.540;13.382;2023-03-31T04:09:47;96418.13;;;10.92
73662;BMP280;61956;52.540;13.382;2023-03-31T04:12:16;96259.28;;;10.91
73662;BMP280;61956;52.540;13.382;2023-03-31T04:14:45;96858.06;;;10.95
73662;BMP280;61956;52.540;13.382;2023-03-31T04:17:15;96481.81;;;10.93
73662;BMP280;61956;52.540;13.382;2023-03-31T04:19:58;96096.38;;;10.89
73662;BMP280;61956;52.540;13.382;2023-03-31T04:22:33;96207.06;;;10.89
73662;BMP280;61956;52.540;13.382;2023-03-31T04:25:10;96117.44;;;10.88
73662;BMP280;61956;52.540;13.382;2023-03-31T04:27:42;96040.06;;;10.86
73662;BMP280;61956;52.540;13.382;2023-03-31T04:30:16;95962.34;;;10.86
73662;BMP280;61956;52.540;13.382;2023-03-31T04:32:50;95654.72;;;10.83
73662;BMP280;61956;52.540;13.382;2023-03-31T04:35:23;96780.19;;;10.91
73662;BMP280;61956;52.540;13.382;2023-03-31T04:38:16;96602.44;;;10.90
73662;BMP280;61956;52.540;13.382;2023-03-31T04:40:47;97032.47;;;10.95
73662;BMP280;61956;52.540;13.382;2023-03-31T04:43:20;97218.50;;;10.98
73662;BMP280;61956;52.540;13.382;2023-03-31T04:45:49;96769.94;;;10.95
73662;BMP280;61956;52.540;13.382;2023-03-31T04:48:21;97085.06;;;10.96
73662;BMP280;61956;52.540;13.382;2023-03-31T04:50:50;97667.19;;;11.02
73662;BMP280;61956;52.540;13.382;2023-03-31T04:53:23;97795.50;;;11.04
73662;BMP280;61956;52.540;13.382;2023-03-31T04:55:54;97527.66;;;11.04
73662;BMP280;61956;52.540;13.382;2023-03-31T04:58:24;97491.34;;;11.04
73662;BMP280;61956;52.540;13.382;2023-03-31T05:00:54;97358.31;;;11.03
73662;BMP280;61956;52.540;13.382;2023-03-31T05:03:24;97396.44;;;11.03
73662;BMP280;61956;52.540;13.382;2023-03-31T05:05:55;97216.03;;;11.02
73662;BMP280;61956;52.540;13.382;2023-03-31T05:08:28;96723.38;;;10.98
73662;BMP280;61956;52.540;13.382;2023-03-31T05:10:57;96499.63;;;10.94
73662;BMP280;61956;52.540;13.382;2023-03-31T05:13:26;96399.28;;;10.95
73662;BMP280;61956;52.540;13.382;2023-03-31T05:15:55;95394.22;;;10.86
73662;BMP280;61956;52.540;13.382;2023-03-31T05:18:26;94525.16;;;10.78
73662;BMP280;61956;52.540;13.382;2023-03-31T05:20:56;93901.69;;;10.69
73662;BMP280;61956;52.540;13.382;2023-03-31T05:23:28;94084.03;;;10.68
73662;BMP280;61956;52.540;13.382;2023-03-31T05:25:57;94023.44;;;10.65
73662;BMP280;61956;52.540;13.382;2023-03-31T05:28:26;93415.00;;;10.60
73662;BMP280;61956;52.540;13.382;2023-03-31T05:30:58;93593.94;;;10.58
73662;BMP280;61956;52.540;13.382;2023-03-31T05:33:28;94851.06;;;10.65
73662;BMP280;61956;52.540;13.382;2023-03-31T05:35:58;95382.59;;;10.69
73662;BMP280;61956;52.540;13.382;2023-03-31T05:38:30;95475.50;;;10.71
73662;BMP280;61956;52.540;13.382;2023-03-31T05:40:59;96153.84;;;10.76
73662;BMP280;61956;52.540;13.382;2023-03-31T05:43:28;95914.03;;;10.75
73662;BMP280;61956;52.540;13.382;2023-03-31T05:45:58;96758.81;;;10.82
73662;BMP280;61956;52.540;13.382;2023-03-31T05:48:28;98141.69;;;10.93
73662;BMP280;61956;52.540;13.382;2023-03-31T05:50:57;99935.78;;;11.09
73662;BMP280;61956;52.540;13.382;2023-03-31T05:53:30;101309.50;;;11.25
73662;BMP280;61956;52.540;13.382;2023-03-31T05:56:00;101117.47;;;11.30
73662;BMP280;61956;52.540;13.382;2023-03-31T05:58:33;101622.75;;;11.39
73662;BMP280;61956;52.540;13.382;2023-03-31T06:01:04;101864.38;;;11.46
73662;BMP280;61956;52.540;13.382;2023-03-31T06:03:37;100692.53;;;11.41
73662;BMP280;61956;52.540;13.382;2023-03-31T06:06:09;99873.16;;;11.38
73662;BMP280;61956;52.540;13.382;2023-03-31T06:08:43;98860.50;;;11.29
73662;BMP280;61956;52.540;13.382;2023-03-31T06:11:16;98348.28;;;11.25
73662;BMP280;61956;52.540;13.382;2023-03-31T06:13:47;98117.22;;;11.22
73662;BMP280;61956;52.540;13.382;2023-03-31T06:16:22;98336.69;;;11.23
73662;BMP280;61956;52.540;13.382;2023-03-31T06:18:53;98854.81;;;11.27
73662;BMP280;61956;52.540;13.382;2023-03-31T06:21:22;99473.28;;;11.33
73662;BMP280;61956;52.540;13.382;2023-03-31T06:23:54;99997.53;;;11.40
73662;BMP280;61956;52.540;13.382;2023-03-31T06:26:25;100668.22;;;11.47
73662;BMP280;61956;52.540;13.382;2023-03-31T06:28:55;101182.50;;;11.53
73662;BMP280;61956;52.540;13.382;2023-03-31T06:31:24;101045.34;;;11.55
73662;BMP280;61956;52.540;13.382;2023-03-31T06:33:54;100517.41;;;11.53
73662;BMP280;61956;52.540;13.382;2023-03-31T06:36:23;100212.69;;;11.53
73662;BMP280;61956;52.540;13.382;2023-03-31T06:38:55;100402.06;;;11.54
73662;BMP280;61956;52.540;13.382;2023-03-31T06:41:24;100540.06;;;11.58
73662;BMP280;61956;52.540;13.382;2023-03-31T06:43:53;101806.91;;;11.67
73662;BMP280;61956;52.540;13.382;2023-03-31T06:46:22;102654.78;;;11.79
73662;BMP280;61956;52.540;13.382;2023-03-31T06:48:52;102594.59;;;11.82
73662;BMP280;61956;52.540;13.382;2023-03-31T06:51:21;102249.53;;;11.82
73662;BMP280;61956;52.540;13.382;2023-03-31T06:53:51;100639.03;;;11.73
73662;BMP280;61956;52.540;13.382;2023-03-31T06:56:23;99664.41;;;11.65
73662;BMP280;61956;52.540;13.382;2023-03-31T06:58:52;98983.22;;;11.59
73662;BMP280;61956;52.540;13.382;2023-03-31T07:01:21;99319.00;;;11.59
73662;BMP280;61956;52.540;13.382;2023-03-31T07:03:51;100144.97;;;11.65
73662;BMP280;61956;52.540;13.382;2023-03-31T07:06:20;100851.56;;;11.71
73662;BMP280;61956;52.540;13.382;2023-03-31T07:08:49;102364.34;;;11.86
73662;BMP280;61956;52.540;13.382;2023-03-31T07:11:18;104964.34;;;12.09
73662;BMP280;61956;52.540;13.382;2023-03-31T07:13:50;107708.09;;;12.42
73662;BMP280;61956;52.540;13.382;2023-03-31T07:16:19;107097.47;;;12.50
73662;BMP280;61956;52.540;13.382;2023-03-31T07:18:49;106370.69;;;12.53
73662;BMP280;61956;52.540;13.382;2023-03-31T07:21:19;106294.72;;;12.58
73662;BMP280;61956;52.540;13.382;2023-03-31T07:23:48;107739.66;;;12.75
73662;BMP280;61956;52.540;13.382;2023-03-31T07:26:18;108228.00;;;12.90
73662;BMP280;61956;52.540;13.382;2023-03-31T07:28:49;108111.94;;;12.98
73662;BMP280;61956;52.540;13.382;2023-03-31T07:31:21;107757.56;;;13.03
73662;BMP280;61956;52.540;13.382;2023-03-31T07:33:51;107814.63;;;13.11
73662;BMP280;61956;52.540;13.382;2023-03-31T07:36:20;107943.19;;;13.18
73662;BMP280;61956;52.540;13.382;2023-03-31T07:38:49;108237.84;;;13.28
73662;BMP280;61956;52.540;13.382;2023-03-31T07:41:20;108407.38;;;13.36
73662;BMP280;61956;52.540;13.382;2023-03-31T07:43:53;108099.75;;;13.41
73662;BMP280;61956;52.540;13.382;2023-03-31T07:46:24;107028.06;;;13.39
73662;BMP280;61956;52.540;13.382;2023-03-31T07:48:56;107100.97;;;13.44
73662;BMP280;61956;52.540;13.382;2023-03-31T07:51:28;108206.28;;;13.56
73662;BMP280;61956;52.540;13.382;2023-03-31T07:53:57;107786.25;;;13.60
73662;BMP280;61956;52.540;13.382;2023-03-31T07:56:26;108783.28;;;13.73
73662;BMP280;61956;52.540;13.382;2023-03-31T07:58:58;109703.38;;;13.90
73662;BMP280;61956;52.540;13.382;2023-03-31T08:01:28;111023.06;;;14.11
73662;BMP280;61956;52.540;13.382;2023-03-31T08:03:57;109211.09;;;14.10
73662;BMP280;61956;52.540;13.382;2023-03-31T08:06:27;107997.72;;;14.02
73662;BMP280;61956;52.540;13.382;2023-03-31T08:08:57;108711.41;;;14.12
73662;BMP280;61956;52.540;13.382;2023-03-31T08:11:27;108150.72;;;14.13
73662;BMP280;61956;52.540;13.382;2023-03-31T08:13:59;109062.44;;;14.24
73662;BMP280;61956;52.540;13.382;2023-03-31T08:16:28;108668.97;;;14.27
73662;BMP280;61956;52.540;13.382;2023-03-31T08:18:57;109798.38;;;14.43
73662;BMP280;61956;52.540;13.382;2023-03-31T08:21:27;110404.84;;;14.56
73662;BMP280;61956;52.540;13.382;2023-03-31T08:23:57;109010.00;;;14.55
73662;BMP280;61956;52.540;13.382;2023-03-31T08:26:26;108633.03;;;14.55
73662;BMP280;61956;52.540;13.382;2023-03-31T08:28:59;108266.59;;;14.54
73662;BMP280;61956;52.540;13.382;2023-03-31T08:31:28;111067.63;;;14.82
73662;BMP280;61956;52.540;13.382;2023-03-31T08:33:58;111321.94;;;15.01
73662;BMP280;61956;52.540;13.382;2023-03-31T08:36:27;109813.00;;;14.97
73662;BMP280;61956;52.540;13.382;2023-03-31T08:38:58;110091.50;;;15.05
73662;BMP280;61956;52.540;13.382;2023-03-31T08:41:41;111261.66;;;15.24
73662;BMP280;61956;52.540;13.382;2023-03-31T08:44:28;111272.16;;;15.36
73662;BMP280;61956;52.540;13.382;2023-03-31T08:47:02;110772.81;;;15.42
73662;BMP280;61956;52.540;13.382;2023-03-31T08:49:39;109534.13;;;15.38
73662;BMP280;61956;52.540;13.382;2023-03-31T08:52:15;112697.81;;;15.70
73662;BMP280;61956;52.540;13.382;2023-03-31T08:54:50;109913.81;;;15.60
73662;BMP280;61956;52.540;13.382;2023-03-31T08:57:25;109512.50;;;15.60
73662;BMP280;61956;52.540;13.382;2023-03-31T09:00:04;106990.03;;;15.39
73662;BMP280;61956;52.540;13.382;2023-03-31T09:02:41;106605.56;;;15.31
73662;BMP280;61956;52.540;13.382;2023-03-31T09:05:31;106080.72;;;15.22
73662;BMP280;61956;52.540;13.382;2023-03-31T09:08:13;105074.91;;;15.11
73662;BMP280;61956;52.540;13.382;2023-03-31T09:10:56;105254.97;;;15.07
73662;BMP280;61956;52.540;13.382;2023-03-31T09:13:45;106992.25;;;15.19
73662;BMP280;61956;52.540;13.382;2023-03-31T09:16:35;108778.78;;;15.44
73662;BMP280;61956;52.540;13.382;2023-03-31T09:19:14;109449.59;;;15.58
73662;BMP280;61956;52.540;13.382;2023-03-31T09:21:49;108694.19;;;15.61
73662;BMP280;61956;52.540;13.382;2023-03-31T09:24:23;105786.31;;;15.36
73662;BMP280;61956;52.540;13.382;2023-03-31T09:27:00;107031.84;;;15.40
73662;BMP280;61956;52.540;13.382;2023-03-31T09:29:37;107878.44;;;15.51
73662;BMP280;61956;52.540;13.382;2023-03-31T09:32:17;108133.31;;;15.56
73662;BMP280;61956;52.540;13.382;2023-03-31T09:34:51;109041.72;;;15.71
73662;BMP280;61956;52.540;13.382;2023-03-31T09:37:28;109760.09;;;15.87
73662;BMP280;61956;52.540;13.382;2023-03-31T09:39:59;109514.09;;;15.93
73662;BMP280;61956;52.540;13.382;2023-03-31T09:42:34;109040.91;;;15.93
73662;BMP280;61956;52.540;13.382;2023-03-31T09:45:05;109136.91;;;15.98
73662;BMP280;61956;52.540;13.382;2023-03-31T09:47:46;108121.84;;;15.92
73662;BMP280;61956;52.540;13.382;2023-03-31T09:50:19;106842.97;;;15.80
73662;BMP280;61956;52.540;13.382;2023-03-31T09:52:52;106740.97;;;15.77
73662;BMP280;61956;52.540;13.382;2023-03-31T09:55:28;107195.94;;;15.81
73662;BMP280;61956;52.540;13.382;2023-03-31T09:58:12;105077.72;;;15.61
73662;BMP280;61956;52.540;13.382;2023-03-31T10:00:55;103147.78;;;15.38
73662;BMP280;61956;52.540;13.382;2023-03-31T10:03:31;101970.44;;;15.16
73662;BMP280;61956;52.540;13.382;2023-03-31T10:06:07;101990.94;;;15.07
73662;BMP280;61956;52.540;13.382;2023-03-31T10:08:40;101456.81;;;14.96
73662;BMP280;61956;52.540;13.382;2023-03-31T10:11:11;101937.06;;;14.94
73662;BMP280;61956;52.540;13.382;2023-03-31T10:13:45;102148.16;;;14.92
73662;BMP280;61956;52.540;13.382;2023-03-31T10:16:26;101428.38;;;14.83
73662;BMP280;61956;52.540;13.382;2023-03-31T10:19:18;100612.31;;;14.69
73662;BMP280;61956;52.540;13.382;2023-03-31T10:21:55;100574.19;;;14.63
73662;BMP280;61956;52.540;13.382;2023-03-31T10:24:36;100058.16;;;14.53
73662;BMP280;61956;52.540;13.382;2023-03-31T10:27:16;99067.66;;;14.38
73662;BMP280;61956;52.540;13.382;2023-03-31T10:29:51;99934.53;;;14.39
73662;BMP280;61956;52.540;13.382;2023-03-31T10:32:24;102001.38;;;14.53
73662;BMP280;61956;52.540;13.382;2023-03-31T10:35:04;103659.53;;;14.74
73662;BMP280;61956;52.540;13.382;2023-03-31T10:37:36;104515.97;;;14.85
73662;BMP280;61956;52.540;13.382;2023-03-31T10:40:13;104781.94;;;14.93
73662;BMP280;61956;52.540;13.382;2023-03-31T10:42:57;105502.06;;;15.04
73662;BMP280;61956;52.540;13.382;2023-03-31T10:45:35;105544.06;;;15.13
73662;BMP280;61956;52.540;13.382;2023-03-31T10:48:16;106355.56;;;15.24
73662;BMP280;61956;52.540;13.382;2023-03-31T10:50:50;106581.03;;;15.32
73662;BMP280;61956;52.540;13.382;2023-03-31T10:53:19;105580.97;;;15.29
73662;BMP280;61956;52.540;13.382;2023-03-31T10:55:59;105147.69;;;15.25
73662;BMP280;61956;52.540;13.382;2023-03-31T10:58:54;103824.31;;;15.11
73662;BMP280;61956;52.540;13.382;2023-03-31T11:01:42;102759.97;;;14.97
73662;BMP280;61956;52.540;13.382;2023-03-31T11:04:51;103913.16;;;15.04
73662;BMP280;61956;52.540;13.382;2023-03-31T11:07:43;106262.03;;;15.26
73662;BMP280;61956;52.540;13.382;2023-03-31T11:10:36;109384.66;;;15.66
73662;BMP280;61956;52.540;13.382;2023-03-31T11:13:23;108160.63;;;15.70
73662;BMP280;61956;52.540;13.382;2023-03-31T11:16:06;107722.56;;;15.73
73662;BMP280;61956;52.540;13.382;2023-03-31T11:19:00;107918.19;;;15.75
73662;BMP280;61956;52.540;13.382;2023-03-31T11:21:45;108097.72;;;15.86
73662;BMP280;61956;52.540;13.382;2023-03-31T11:24:32;108259.16;;;15.91
73662;BMP280;61956;52.540;13.382;2023-03-31T11:27:25;107321.56;;;15.84
73662;BMP280;61956;52.540;13.382;2023-03-31T11:30:09;106488.25;;;15.79
73662;BMP280;61956;52.540;13.382;2023-03-31T11:32:56;105991.41;;;15.77
73662;BMP280;61956;52.540;13.382;2023-03-31T11:35:53;105518.00;;;15.68
73662;BMP280;61956;52.540;13.382;2023-03-31T11:38:46;106327.81;;;15.76
73662;BMP280;61956;52.540;13.382;2023-03-31T11:41:34;106989.53;;;15.83
73662;BMP280;61956;52.540;13.382;2023-03-31T11:44:09;107087.09;;;15.88
73662;BMP280;61956;52.540;13.382;2023-03-31T11:46:43;107543.78;;;15.95
73662;BMP280;61956;52.540;13.382;2023-03-31T11:49:18;106478.72;;;15.90
73662;BMP280;61956;52.540;13.382;2023-03-31T11:51:53;105748.38;;;15.79
73662;BMP280;61956;52.540;13.382;2023-03-31T11:54:30;106570.59;;;15.88
73662;BMP280;61956;52.540;13.382;2023-03-31T11:57:09;106620.28;;;15.90
73662;BMP280;61956;52.540;13.382;2023-03-31T11:59:55;108304.50;;;16.11
73662;BMP280;61956;52.540;13.382;2023-03-31T12:02:42;107538.38;;;16.11
73662;BMP280;61956;52.540;13.382;2023-03-31T12:05:16;105620.38;;;15.94
73662;BMP280;61956;52.540;13.382;2023-03-31T12:07:52;104621.72;;;15.80
73662;BMP280;61956;52.540;13.382;2023-03-31T12:10:32;104671.16;;;15.75
73662;BMP280;61956;52.540;13.382;2023-03-31T12:13:29;100882.19;;;15.37
73662;BMP280;61956;52.540;13.382;2023-03-31T12:16:09;99364.84;;;15.09
73662;BMP280;61956;52.540;13.382;2023-03-31T12:18:46;97473.47;;;14.78
73662;BMP280;61956;52.540;13.382;2023-03-31T12:21:28;94351.06;;;14.35
73662;BMP280;61956;52.540;13.382;2023-03-31T12:24:00;95610.63;;;14.25
73662;BMP280;61956;52.540;13.382;2023-03-31T12:26:40;96660.13;;;14.23
73662;BMP280;61956;52.540;13.382;2023-03-31T12:29:27;99282.50;;;14.42
73662;BMP280;61956;52.540;13.382;2023-03-31T12:32:02;101858.56;;;14.66
73662;BMP280;61956;52.540;13.382;2023-03-31T12:34:38;103285.03;;;14.87
73662;BMP280;61956;52.540;13.382;2023-03-31T12:40:36;103726.47;;;15.05
73662;BMP280;61956;52.540;13.382;2023-03-31T12:43:30;103389.50;;;15.02
73662;BMP280;61956;52.540;13.382;2023-03-31T12:49:39;102285.25;;;14.96
73662;BMP280;61956;52.540;13.382;2023-03-31T12:52:24;101956.84;;;14.90
73662;BMP280;61956;52.540;13.382;2023-03-31T12:55:22;100262.19;;;14.70
73662;BMP280;61956;52.540;13.382;2023-03-31T13:01:16;95653.78;;;14.12
73662;BMP280;61956;52.540;13.382;2023-03-31T13:03:52;93004.97;;;13.78
73662;BMP280;61956;52.540;13.382;2023-03-31T13:06:55;91089.34;;;13.39
73662;BMP280;61956;52.540;13.382;2023-03-31T13:09:43;89490.91;;;13.11
73662;BMP280;61956;52.540;13.382;2023-03-31T13:12:20;89154.06;;;12.92
73662;BMP280;61956;52.540;13.382;2023-03-31T13:14:53;89596.88;;;12.83
73662;BMP280;61956;52.540;13.382;2023-03-31T13:17:28;88756.19;;;12.68
73662;BMP280;61956;52.540;13.382;2023-03-31T13:20:28;88647.50;;;12.52
73662;BMP280;61956;52.540;13.382;2023-03-31T13:23:04;88998.25;;;12.47
73662;BMP280;61956;52.540;13.382;2023-03-31T13:25:46;89632.81;;;12.43
73662;BMP280;61956;52.540;13.382;2023-03-31T13:28:33;90152.91;;;12.41
73662;BMP280;61956;52.540;13.382;2023-03-31T13:31:08;89981.97;;;12.35
73662;BMP280;61956;52.540;13.382;2023-03-31T13:33:41;90786.19;;;12.35
73662;BMP280;61956;52.540;13.382;2023-03-31T13:36:44;90922.00;;;12.32
73662;BMP280;61956;52.540;13.382;2023-03-31T13:39:49;91402.81;;;12.31
73662;BMP280;61956;52.540;13.382;2023-03-31T13:42:52;91633.81;;;12.28
73662;BMP280;61956;52.540;13.382;2023-03-31T13:48:56;91224.84;;;12.17
73662;BMP280;61956;52.540;13.382;2023-03-31T13:51:50;91627.09;;;12.16
73662;BMP280;61956;52.540;13.382;2023-03-31T14:00:54;91335.09;;;12.07
73662;BMP280;61956;52.540;13.382;2023-03-31T14:03:53;90240.13;;;11.93
73662;BMP280;61956;52.540;13.382;2023-03-31T14:06:35;89090.47;;;11.79
73662;BMP280;61956;52.540;13.382;2023-03-31T14:09:13;89617.22;;;11.78
73662;BMP280;61956;52.540;13.382;2023-03-31T14:11:50;89106.91;;;11.67
73662;BMP280;61956;52.540;13.382;2023-03-31T14:14:23;87971.50;;;11.55
73662;BMP280;61956;52.540;13.382;2023-03-31T14:16:56;87764.72;;;11.48
73662;BMP280;61956;52.540;13.382;2023-03-31T14:22:43;89258.00;;;11.48
73662;BMP280;61956;52.540;13.382;2023-03-31T14:25:30;89530.88;;;11.47
73662;BMP280;61956;52.540;13.382;2023-03-31T14:28:17;89963.06;;;11.47
73662;BMP280;61956;52.540;13.382;2023-03-31T14:31:08;91436.34;;;11.55
73662;BMP280;61956;52.540;13.382;2023-03-31T14:33:56;91787.94;;;11.60
73662;BMP280;61956;52.540;13.382;2023-03-31T14:36:50;91367.16;;;11.55
73662;BMP280;61956;52.540;13.382;2023-03-31T14:39:27;91119.94;;;11.51
73662;BMP280;61956;52.540;13.382;2023-03-31T14:42:03;91437.75;;;11.50
73662;BMP280;61956;52.540;13.382;2023-03-31T14:44:40;91112.63;;;11.49
73662;BMP280;61956;52.540;13.382;2023-03-31T14:47:14;91428.97;;;11.48
73662;BMP280;61956;52.540;13.382;2023-03-31T14:49:58;91142.53;;;11.45
73662;BMP280;61956;52.540;13.382;2023-03-31T14:52:30;91095.69;;;11.43
73662;BMP280;61956;52.540;13.382;2023-03-31T14:55:00;91563.88;;;11.44
73662;BMP280;61956;52.540;13.382;2023-03-31T14:57:35;90706.00;;;11.36
73662;BMP280;61956;52.540;13.382;2023-03-31T15:00:11;91585.94;;;11.40
73662;BMP280;61956;52.540;13.382;2023-03-31T15:02:45;91898.81;;;11.41
73662;BMP280;61956;52.540;13.382;2023-03-31T15:05:23;92098.91;;;11.42
73662;BMP280;61956;52.540;13.382;2023-03-31T15:07:57;91312.44;;;11.36
73662;BMP280;61956;52.540;13.382;2023-03-31T15:10:38;90836.59;;;11.29
73662;BMP280;61956;52.540;13.382;2023-03-31T15:13:17;91284.38;;;11.29
73662;BMP280;61956;52.540;13.382;2023-03-31T15:15:49;91816.06;;;11.32